Time;durP1;ratioP1;P1;durP2;ratioP2;P2;SDS_P1;SDS_P2;PMS_P1;PMS_P2;Temp;Humidity;BMP_temperature;BMP_pressure;BME280_temperature;BME280_humidity;BME280_pressure;Samples;Min_cycle;Max_cycle;Signal;HPM_P1;HPM_P2
2022/10/29 00:02:19;;;;;;;16.90;12.90;;;;;;;;;;10518054;28;20194;-81
2022/10/29 00:07:40;;;;;;;27.30;18.27;;;;;;;;;;10525687;28;20522;-80
2022/10/29 00:13:03;;;;;;;20.73;14.93;;;;;;;;;;10527007;28;20237;-78
2022/10/29 00:18:24;;;;;;;18.70;14.87;;;12.30;99.90;;;;;;10527153;28;20194;-78
2022/10/29 00:23:45;;;;;;;16.23;13.53;;;12.30;99.90;;;;;;10526218;28;20235;-78
2022/10/29 00:29:08;;;;;;;17.13;12.43;;;;;;;;;;10511644;28;20283;-79
2022/10/29 00:34:30;;;;;;;15.67;12.53;;;;;;;;;;10511976;28;20195;-82
2022/10/29 00:39:53;;;;;;;16.73;13.10;;;;;;;;;;10543459;28;20194;-78
2022/10/29 00:45:22;;;;;;;15.17;12.37;;;;;;;;;;10511498;28;20249;-83
2022/10/29 00:50:47;;;;;;;17.17;12.33;;;;;;;;;;10500447;28;20199;-81
2022/10/29 00:56:10;;;;;;;16.93;12.13;;;;;;;;;;10514543;28;20194;-84
2022/10/29 01:01:35;;;;;;;15.37;12.73;;;;;;;;;;10527199;28;20202;-81
2022/10/29 01:06:58;;;;;;;19.27;13.00;;;;;;;;;;10527017;28;20258;-79
2022/10/29 01:12:42;;;;;;;16.57;12.47;;;;;;;;;;10525030;28;20196;-78
2022/10/29 01:18:05;;;;;;;25.50;12.37;;;;;;;;;;10524580;28;20199;-80
2022/10/29 01:23:48;;;;;;;19.60;12.07;;;;;;;;;;10524926;28;20193;-79
2022/10/29 01:29:23;;;;;;;18.40;11.03;;;;;;;;;;10509469;28;20484;-82
2022/10/29 01:34:47;;;;;;;17.37;12.23;;;;;;;;;;10524108;28;20211;-89
2022/10/29 01:40:33;;;;;;;17.17;11.80;;;;;;;;;;10543809;28;20193;-78
2022/10/29 01:46:10;;;;;;;18.93;12.60;;;;;;;;;;10512729;28;20245;-79
2022/10/29 01:51:36;;;;;;;16.30;11.93;;;;;;;;;;10483350;28;20244;-85
2022/10/29 01:57:00;;;;;;;13.87;11.10;;;;;;;;;;10492444;28;20200;-83
2022/10/29 02:02:50;;;;;;;18.73;11.80;;;;;;;;;;10519872;28;20264;-90
2022/10/29 02:08:33;;;;;;;15.13;11.40;;;;;;;;;;10423573;28;20233;-79
2022/10/29 02:13:59;;;;;;;18.30;12.30;;;;;;;;;;10437261;28;20205;-82
2022/10/29 02:19:22;;;;;;;14.90;11.77;;;;;;;;;;10437391;28;20238;-89
2022/10/29 02:24:45;;;;;;;18.33;11.10;;;;;;;;;;10406384;28;20305;-83
2022/10/29 02:30:08;;;;;;;18.37;11.77;;;;;;;;;;10421980;28;20477;-82
2022/10/29 02:35:32;;;;;;;17.73;11.87;;;;;;;;;;10419648;28;20319;-79
2022/10/29 02:40:55;;;;;;;15.03;11.80;;;;;;;;;;10447473;28;20509;-88
2022/10/29 02:46:20;;;;;;;16.40;12.43;;;;;;;;;;10510433;28;20311;-79
2022/10/29 02:51:45;;;;;;;15.77;11.10;;;;;;;;;;10484065;28;20192;-78
2022/10/29 02:57:07;;;;;;;16.10;11.20;;;;;;;;;;10513549;28;20220;-77
2022/10/29 03:02:30;;;;;;;19.90;11.33;;;;;;;;;;10525321;28;20382;-89
2022/10/29 03:07:53;;;;;;;19.50;10.00;;;;;;;;;;10522021;28;20254;-90
2022/10/29 03:13:16;;;;;;;14.57;10.00;;;;;;;;;;10505722;28;20272;-86
2022/10/29 03:18:39;;;;;;;17.43;10.17;;;;;;;;;;10520968;28;20242;-82
2022/10/29 03:24:01;;;;;;;13.37;9.57;;;;;;;;;;10519436;28;20496;-90
2022/10/29 03:29:24;;;;;;;17.77;10.70;;;;;;;;;;10520554;28;20530;-89
2022/10/29 03:34:46;;;;;;;13.30;9.27;;;;;;;;;;10505374;28;20482;-86
2022/10/29 03:40:09;;;;;;;15.50;9.37;;;;;;;;;;10537789;28;20236;-82
2022/10/29 03:45:31;;;;;;;16.00;9.87;;;;;;;;;;10515536;28;20277;-80
2022/10/29 03:51:05;;;;;;;20.03;11.57;;;;;;;;;;10478355;28;20484;-80
2022/10/29 03:56:27;;;;;;;19.97;9.93;;;;;;;;;;10502095;28;20207;-78
2022/10/29 04:01:50;;;;;;;21.60;11.33;;;;;;;;;;10517811;28;20192;-89
2022/10/29 04:07:13;;;;;;;17.30;11.07;;;;;;;;;;10462991;28;20302;-79
2022/10/29 04:12:35;;;;;;;18.13;10.40;;;;;;;;;;10478245;28;20190;-78
2022/10/29 04:17:58;;;;;;;15.07;9.73;;;;;;;;;;10477128;28;20276;-89
2022/10/29 04:23:21;;;;;;;17.63;12.20;;;;;;;;;;10478120;28;20193;-90
2022/10/29 04:29:04;;;;;;;13.77;9.83;;;;;;;;;;10494632;28;20219;-79
2022/10/29 04:34:26;;;;;;;20.10;10.83;;;;;;;;;;10504022;28;20192;-91
2022/10/29 04:39:48;;;;;;;17.87;11.60;;;;;;;;;;10534947;28;20191;-78
2022/10/29 04:45:11;;;;;;;24.83;13.03;;;;;;;;;;10519740;28;20238;-78
2022/10/29 04:50:34;;;;;;;28.73;15.47;;;;;;;;;;10494080;28;20250;-79
2022/10/29 04:56:04;;;;;;;28.00;16.40;;;;;;;;;;10509395;28;20216;-90
2022/10/29 05:01:26;;;;;;;29.80;17.37;;;;;;;;;;10530606;28;20314;-79
2022/10/29 05:06:48;;;;;;;33.83;18.60;;;;;;;;;;10525481;28;20223;-82
2022/10/29 05:12:11;;;;;;;32.27;16.90;;;;;;;;;;10524546;28;20200;-78
2022/10/29 05:17:40;;;;;;;26.67;13.63;;;;;;;;;;10524135;28;20204;-83
2022/10/29 05:23:02;;;;;;;31.47;11.70;;;;;;;;;;10524432;28;20437;-89
2022/10/29 05:28:26;;;;;;;21.13;9.97;;;;;;;;;;10523526;28;20286;-89
2022/10/29 05:33:47;;;;;;;16.27;8.10;;;14.20;99.90;;;;;;10509865;28;20240;-90
2022/10/29 05:39:08;;;;;;;18.73;8.77;;;14.30;99.90;;;;;;10513288;28;20192;-80
2022/10/29 05:44:29;;;;;;;15.93;6.83;;;14.20;99.90;;;;;;10512093;28;20463;-89
2022/10/29 05:49:50;;;;;;;14.20;5.70;;;14.10;99.90;;;;;;10482471;28;20221;-82
2022/10/29 05:55:11;;;;;;;9.03;5.10;;;14.00;99.90;;;;;;10503463;28;20198;-85
2022/10/29 06:00:35;;;;;;;13.40;5.73;;;13.90;99.90;;;;;;10523944;28;20193;-80
2022/10/29 06:05:56;;;;;;;9.73;5.73;;;14.10;99.90;;;;;;10522967;28;20221;-90
2022/10/29 06:11:17;;;;;;;9.27;5.60;;;14.10;99.90;;;;;;10523171;28;20229;-83
2022/10/29 06:16:40;;;;;;;14.10;6.10;;;14.10;99.90;;;;;;10523126;28;20188;-79
2022/10/29 06:22:00;;;;;;;14.80;6.60;;;14.10;99.90;;;;;;10522920;28;20226;-78
2022/10/29 06:27:22;;;;;;;17.03;6.20;;;14.00;99.90;;;;;;10521807;28;20402;-89
2022/10/29 06:32:46;;;;;;;14.30;3.87;;;14.10;99.90;;;;;;10521826;28;20241;-79
2022/10/29 06:38:07;;;;;;;8.90;3.73;;;14.10;99.90;;;;;;10522677;28;20555;-78
2022/10/29 06:43:29;;;;;;;16.33;4.10;;;14.10;99.90;;;;;;10552186;28;20233;-85
2022/10/29 06:48:49;;;;;;;10.27;4.00;;;14.00;99.90;;;;;;10498627;28;20294;-79
2022/10/29 06:54:11;;;;;;;12.80;4.37;;;14.00;99.90;;;;;;10479567;28;20195;-90
2022/10/29 06:59:32;;;;;;;12.73;4.03;;;14.10;99.90;;;;;;10520350;28;20198;-88
2022/10/29 07:04:53;;;;;;;14.60;3.00;;;14.10;99.90;;;;;;10516869;28;20192;-90
2022/10/29 07:10:15;;;;;;;8.37;3.17;;;;;;;;;;10534712;28;20295;-78
2022/10/29 07:15:38;;;;;;;10.70;3.40;;;;;;;;;;10520614;28;20395;-88
2022/10/29 07:21:02;;;;;;;7.77;3.23;;;;;;;;;;10520040;28;20360;-85
2022/10/29 07:26:24;;;;;;;10.77;3.43;;;;;;;;;;10520425;28;20234;-81
2022/10/29 07:31:46;;;;;;;10.47;4.87;;;;;;;;;;10527687;28;20185;-78
2022/10/29 07:37:07;;;;;;;9.53;3.43;;;14.30;99.90;;;;;;10541778;28;20180;-78
2022/10/29 07:42:29;;;;;;;13.80;3.87;;;14.50;99.90;;;;;;10565017;28;20185;-80
2022/10/29 07:48:08;;;;;;;13.97;3.73;;;14.70;99.90;;;;;;10548525;28;20286;-86
2022/10/29 07:53:32;;;;;;;14.07;4.47;;;15.00;99.90;;;;;;10561010;28;20220;-79
2022/10/29 07:58:53;;;;;;;11.73;3.90;;;15.10;99.90;;;;;;10523350;28;20248;-78
2022/10/29 08:04:14;;;;;;;7.57;3.50;;;15.10;99.90;;;;;;10517210;28;20194;-81
2022/10/29 08:09:36;;;;;;;17.83;3.67;;;15.10;99.90;;;;;;10519157;28;20236;-81
2022/10/29 08:14:57;;;;;;;10.67;3.60;;;15.00;99.90;;;;;;10519929;28;20216;-90
2022/10/29 08:20:18;;;;;;;12.07;3.50;;;14.90;99.90;;;;;;10518885;28;20209;-89
2022/10/29 08:25:41;;;;;;;12.93;3.33;;;14.90;99.90;;;;;;10519446;28;20213;-89
2022/10/29 08:31:02;;;;;;;11.67;3.13;;;15.10;99.90;;;;;;10526808;28;20195;-79
2022/10/29 08:36:23;;;;;;;10.35;3.20;;;15.30;99.90;;;;;;10526988;28;20292;-82
2022/10/29 08:41:53;;;;;;;7.60;2.73;;;;;;;;;;10526544;28;20188;-83
2022/10/29 08:47:19;;;;;;;10.95;3.40;;;;;;;;;;10525048;28;20323;-83
2022/10/29 08:52:41;;;;;;;6.73;2.40;;;;;;;;;;10511175;28;20226;-79
2022/10/29 08:58:22;;;;;;;8.52;2.60;;;15.50;99.90;;;;;;10483269;28;20202;-86
2022/10/29 09:03:43;;;;;;;10.13;2.83;;;15.60;99.90;;;;;;10504934;28;20205;-81
2022/10/29 09:09:44;;;;;;;10.60;2.65;;;15.80;99.90;;;;;;10525814;28;20219;-85
2022/10/29 09:15:43;;;;;;;12.23;2.73;;;15.70;99.90;;;;;;10524375;28;20194;-81
2022/10/29 09:21:25;;;;;;;12.03;2.73;;;15.80;99.90;;;;;;10508616;28;20190;-76
2022/10/29 09:26:57;;;;;;;7.50;2.60;;;15.70;99.90;;;;;;10505066;28;20230;-76
2022/10/29 09:32:44;;;;;;;14.43;3.33;;;15.70;99.90;;;;;;10517858;28;20213;-77
2022/10/29 09:38:18;;;;;;;12.17;3.13;;;15.80;99.90;;;;;;10403213;28;20231;-85
2022/10/29 09:43:48;;;;;;;18.10;3.20;;;15.50;99.90;;;;;;10395258;28;20243;-83
2022/10/29 09:49:31;;;;;;;14.50;3.30;;;15.50;99.90;;;;;;10380492;28;20236;-82
2022/10/29 09:54:53;;;;;;;11.43;3.23;;;15.50;99.90;;;;;;10414579;28;20490;-87
2022/10/29 10:00:24;;;;;;;8.73;2.73;;;15.60;99.90;;;;;;10433791;28;20231;-83
2022/10/29 10:06:05;;;;;;;11.35;2.78;;;15.90;99.90;;;;;;10433233;28;20231;-82
2022/10/29 10:11:39;;;;;;;9.75;2.53;;;16.00;99.90;;;;;;10414650;28;20207;-84
2022/10/29 10:17:02;;;;;;;14.25;3.10;;;16.30;99.90;;;;;;10520399;28;20218;-83
2022/10/29 10:22:23;;;;;;;9.65;2.90;;;16.40;99.90;;;;;;10521937;28;20266;-81
2022/10/29 10:27:44;;;;;;;8.32;2.80;;;16.50;99.90;;;;;;10506727;28;20228;-89
2022/10/29 10:33:26;;;;;;;11.60;2.72;;;16.40;99.90;;;;;;10521562;28;20264;-83
2022/10/29 10:39:16;;;;;;;10.38;2.60;;;16.50;99.90;;;;;;10527749;28;20205;-83
2022/10/29 10:44:46;;;;;;;8.02;3.03;;;16.40;99.90;;;;;;10539513;28;20229;-79
2022/10/29 10:50:31;;;;;;;6.40;2.33;;;16.50;99.90;;;;;;10464252;28;20251;-79
2022/10/29 10:55:56;;;;;;;7.70;2.60;;;16.70;99.90;;;;;;10494235;28;20510;-79
2022/10/29 11:01:40;;;;;;;11.52;3.00;;;16.80;99.10;;;;;;10499362;28;20216;-87
2022/10/29 11:07:10;;;;;;;6.82;2.60;;;16.70;99.90;;;;;;10507237;28;20224;-83
2022/10/29 11:12:59;;;;;;;13.45;2.67;;;16.60;99.90;;;;;;10519392;28;20219;-82
2022/10/29 11:18:24;;;;;;;12.05;2.80;;;16.50;99.90;;;;;;10520572;28;20201;-79
2022/10/29 11:23:57;;;;;;;11.77;2.92;;;17.20;99.00;;;;;;10505113;28;20217;-80
2022/10/29 11:29:30;;;;;;;7.32;1.98;;;18.50;95.70;;;;;;10477874;28;20258;-87
2022/10/29 11:35:12;;;;;;;7.45;2.28;;;19.20;91.80;;;;;;10463790;28;20196;-79
2022/10/29 11:41:03;;;;;;;8.55;2.15;;;19.50;75.10;;;;;;10521733;28;20194;-82
2022/10/29 11:46:46;;;;;;;9.43;2.42;;;20.00;67.70;;;;;;10533245;28;20245;-88
2022/10/29 11:52:11;;;;;;;5.45;1.80;;;20.40;60.70;;;;;;10522304;28;20206;-85
2022/10/29 11:57:32;;;;;;;8.27;1.98;;;21.00;54.90;;;;;;10519461;28;20195;-79
2022/10/29 12:03:09;;;;;;;10.93;2.20;;;20.80;50.20;;;;;;10525162;28;20226;-79
2022/10/29 12:08:48;;;;;;;7.20;1.90;;;20.60;49.30;;;;;;10527260;28;20582;-82
2022/10/29 12:14:28;;;;;;;6.13;2.08;;;20.50;49.20;;;;;;10536118;28;20199;-79
2022/10/29 12:19:56;;;;;;;8.07;2.63;;;20.60;48.20;;;;;;10544834;28;20221;-88
2022/10/29 12:25:46;;;;;;;8.65;2.20;;;20.00;48.10;;;;;;10512051;28;20187;-84
2022/10/29 12:31:25;;;;;;;7.70;1.95;;;19.30;50.80;;;;;;10526002;28;20222;-86
2022/10/29 12:37:06;;;;;;;6.47;1.67;;;18.70;53.30;;;;;;10511796;28;20203;-79
2022/10/29 12:42:29;;;;;;;6.88;2.15;;;18.00;58.80;;;;;;10564269;28;20202;-87
2022/10/29 12:48:12;;;;;;;9.30;2.10;;;17.50;72.30;;;;;;10516925;28;20581;-85
2022/10/29 12:54:01;;;;;;;5.60;1.80;;;17.20;75.50;;;;;;10510990;28;20292;-77
2022/10/29 12:59:34;;;;;;;7.40;2.20;;;16.90;83.30;;;;;;10520978;28;20207;-86
2022/10/29 13:05:08;;;;;;;7.93;1.70;;;16.70;88.50;;;;;;10526133;28;20198;-88
2022/10/29 13:10:32;;;;;;;5.15;1.70;;;16.40;88.20;;;;;;10526432;28;20262;-79
2022/10/29 13:15:56;;;;;;;5.22;2.00;;;16.10;89.20;;;;;;10526261;28;20253;-83
2022/10/29 13:21:55;;;;;;;8.48;2.22;;;15.90;91.40;;;;;;10511353;28;20287;-80
2022/10/29 13:27:16;;;;;;;4.60;1.63;;;15.80;91.90;;;;;;10525393;28;20228;-79
2022/10/29 13:32:38;;;;;;;7.27;2.00;;;15.60;93.20;;;;;;10510016;28;20224;-81
2022/10/29 13:38:11;;;;;;;11.45;2.95;;;15.60;93.70;;;;;;10510364;28;20564;-79
2022/10/29 13:48:54;;;;;;;4.10;1.75;;;15.40;93.40;;;;;;10487094;28;20240;-79
2022/10/29 13:54:36;;;;;;;6.43;1.60;;;15.40;93.60;;;;;;10505674;28;20366;-78
2022/10/29 14:00:18;;;;;;;10.80;2.58;;;15.20;94.10;;;;;;10525368;28;20194;-80
2022/10/29 14:05:50;;;;;;;5.13;1.88;;;15.20;94.70;;;;;;10521646;28;20496;-80
2022/10/29 14:11:23;;;;;;;6.88;2.15;;;15.10;95.70;;;;;;10508549;28;20238;-79
2022/10/29 14:16:44;;;;;;;6.90;1.97;;;15.00;95.80;;;;;;10493479;28;20200;-78
2022/10/29 14:22:17;;;;;;;11.07;2.43;;;15.00;96.30;;;;;;10507472;28;20204;-81
2022/10/29 14:27:38;;;;;;;8.75;2.50;;;14.80;97.30;;;;;;10521028;28;20229;-81
2022/10/29 14:32:59;;;;;;;5.00;1.80;;;14.70;98.40;;;;;;10506857;28;20205;-83
2022/10/29 14:38:26;;;;;;;9.13;2.03;;;14.60;99.30;;;;;;10510518;28;20196;-81
2022/10/29 14:44:14;;;;;;;6.27;1.90;;;14.40;99.90;;;;;;10524368;28;20208;-79
2022/10/29 14:49:44;;;;;;;7.65;2.47;;;14.30;99.90;;;;;;10536751;28;20251;-79
2022/10/29 14:55:18;;;;;;;8.70;2.57;;;14.20;99.90;;;;;;10520200;28;20427;-79
2022/10/29 15:00:55;;;;;;;4.87;2.70;;;14.00;99.90;;;;;;10521223;28;20497;-83
2022/10/29 15:06:25;;;;;;;9.73;2.77;;;14.10;99.90;;;;;;10501770;28;20266;-78
2022/10/29 15:12:15;;;;;;;7.90;2.73;;;13.90;99.90;;;;;;10492307;28;20194;-79
2022/10/29 15:17:48;;;;;;;9.83;3.33;;;13.80;99.90;;;;;;10478498;28;20189;-78
2022/10/29 15:23:18;;;;;;;7.67;3.00;;;13.50;99.90;;;;;;10494374;28;20246;-79
2022/10/29 15:28:45;;;;;;;8.63;2.53;;;13.50;99.90;;;;;;10519267;28;20271;-79
2022/10/29 15:34:08;;;;;;;9.53;2.80;;;13.30;99.90;;;;;;10519130;28;20184;-80
2022/10/29 15:39:55;;;;;;;8.07;3.47;;;13.30;99.90;;;;;;10532898;28;20548;-78
2022/10/29 15:45:18;;;;;;;10.80;3.40;;;13.30;99.90;;;;;;10520584;28;20228;-79
2022/10/29 15:50:42;;;;;;;5.40;1.90;;;13.20;99.90;;;;;;10463371;28;20261;-79
2022/10/29 15:56:04;;;;;;;7.23;1.87;;;13.10;99.90;;;;;;10507741;28;20189;-78
2022/10/29 16:01:25;;;;;;;5.77;2.03;;;13.00;99.90;;;;;;10518803;28;20196;-80
2022/10/29 16:06:46;;;;;;;6.73;1.97;;;13.10;99.90;;;;;;10518309;28;20199;-81
2022/10/29 16:12:09;;;;;;;8.40;2.23;;;13.00;99.90;;;;;;10519204;28;20435;-79
2022/10/29 16:17:30;;;;;;;8.10;2.47;;;13.00;99.90;;;;;;10519609;28;20191;-80
2022/10/29 16:22:51;;;;;;;9.87;3.27;;;12.90;99.90;;;;;;10521832;28;20184;-78
2022/10/29 16:28:13;;;;;;;10.57;4.37;;;12.90;99.90;;;;;;10503679;28;20227;-78
2022/10/29 16:33:35;;;;;;;11.67;3.87;;;12.80;99.90;;;;;;10519151;28;20211;-89
2022/10/29 16:38:56;;;;;;;8.77;3.20;;;;;;;;;;10527486;28;20190;-79
2022/10/29 16:44:18;;;;;;;8.90;3.23;;;;;;;;;;10521777;28;20278;-78
2022/10/29 16:49:39;;;;;;;8.93;3.23;;;;;;;;;;10514895;28;20443;-79
2022/10/29 16:55:00;;;;;;;8.63;3.00;;;;;;;;;;10536645;28;20267;-78
2022/10/29 17:00:24;;;;;;;4.80;2.27;;;;;;;;;;10535863;28;20196;-79
2022/10/29 17:05:46;;;;;;;6.07;2.27;;;;;;;;;;10509373;28;20196;-78
2022/10/29 17:11:08;;;;;;;6.97;1.90;;;;;;;;;;10510845;28;20219;-80
2022/10/29 17:16:30;;;;;;;7.03;2.77;;;;;;;;;;10526764;28;20189;-79
2022/10/29 17:21:52;;;;;;;7.43;2.00;;;;;;;;;;10526263;28;20249;-80
2022/10/29 17:27:13;;;;;;;5.23;2.10;;;;;;;;;;10510985;28;20211;-79
2022/10/29 17:32:34;;;;;;;7.20;2.47;;;12.40;99.90;;;;;;10512327;28;20198;-81
2022/10/29 17:37:55;;;;;;;6.03;2.03;;;12.30;99.90;;;;;;10528111;28;20219;-88
2022/10/29 17:43:17;;;;;;;8.57;2.10;;;;;;;;;;10537772;28;20267;-80
2022/10/29 17:48:38;;;;;;;14.17;3.63;;;12.00;99.90;;;;;;10510284;28;20244;-84
2022/10/29 17:53:59;;;;;;;21.13;7.77;;;11.90;99.90;;;;;;10523096;28;20198;-88
2022/10/29 17:59:20;;;;;;;18.90;6.97;;;11.90;99.90;;;;;;10525730;28;20197;-88
2022/10/29 18:04:43;;;;;;;11.60;3.97;;;11.80;99.90;;;;;;10518445;28;20222;-79
2022/10/29 18:10:05;;;;;;;4.10;2.13;;;11.80;99.90;;;;;;10523596;28;20295;-85
2022/10/29 18:15:26;;;;;;;9.50;2.47;;;11.80;99.90;;;;;;10524591;28;20195;-79
2022/10/29 18:20:47;;;;;;;7.13;2.43;;;11.80;99.90;;;;;;10522630;28;20196;-80
2022/10/29 18:26:27;;;;;;;6.30;2.20;;;11.90;99.90;;;;;;10508668;28;20274;-84
2022/10/29 18:31:48;;;;;;;8.67;3.67;;;11.90;99.90;;;;;;10508931;28;20236;-88
2022/10/29 18:37:10;;;;;;;10.87;3.33;;;11.90;99.90;;;;;;10523035;28;20417;-82
2022/10/29 18:42:31;;;;;;;5.93;2.17;;;11.80;99.90;;;;;;10533586;28;20573;-87
2022/10/29 18:47:52;;;;;;;8.57;2.27;;;11.90;99.90;;;;;;10496039;28;20241;-84
2022/10/29 18:53:13;;;;;;;6.17;2.60;;;11.90;99.90;;;;;;10465881;28;20227;-86
2022/10/29 18:58:34;;;;;;;8.27;2.93;;;11.90;99.90;;;;;;10482131;28;20215;-83
2022/10/29 19:03:57;;;;;;;8.97;2.60;;;11.80;99.90;;;;;;10515072;28;20219;-81
2022/10/29 19:09:18;;;;;;;4.20;2.00;;;11.80;99.90;;;;;;10507672;28;20223;-88
2022/10/29 19:14:39;;;;;;;9.57;3.00;;;11.90;99.90;;;;;;10527945;28;20260;-78
2022/10/29 19:20:00;;;;;;;11.13;2.63;;;11.90;99.90;;;;;;10521844;28;20382;-78
2022/10/29 19:25:23;;;;;;;4.50;1.83;;;11.90;99.90;;;;;;10508897;28;20191;-78
2022/10/29 19:30:44;;;;;;;4.87;1.90;;;11.90;99.90;;;;;;10519989;28;20226;-77
2022/10/29 19:36:07;;;;;;;9.17;3.07;;;11.90;99.90;;;;;;10506109;28;20191;-78
2022/10/29 19:41:29;;;;;;;5.67;2.40;;;11.90;99.90;;;;;;10557821;28;20188;-89
2022/10/29 19:46:50;;;;;;;9.53;2.87;;;11.90;99.90;;;;;;10535207;28;20248;-82
2022/10/29 19:52:11;;;;;;;7.83;2.63;;;11.90;99.90;;;;;;10531338;28;20202;-77
2022/10/29 19:57:32;;;;;;;6.97;2.63;;;12.00;99.90;;;;;;10526456;28;20192;-80
2022/10/29 20:02:53;;;;;;;9.57;2.17;;;11.90;99.90;;;;;;10525244;28;20205;-78
2022/10/29 20:08:14;;;;;;;15.27;2.67;;;11.90;99.90;;;;;;10521883;28;20212;-78
2022/10/29 20:13:38;;;;;;;8.50;2.93;;;11.90;99.90;;;;;;10527347;28;20275;-78
2022/10/29 20:18:59;;;;;;;4.80;2.20;;;11.90;99.90;;;;;;10524871;28;20220;-78
2022/10/29 20:24:20;;;;;;;6.30;1.83;;;11.90;99.90;;;;;;10519937;28;20405;-81
2022/10/29 20:29:42;;;;;;;7.70;2.63;;;11.90;99.90;;;;;;10523854;28;20229;-81
2022/10/29 20:35:03;;;;;;;7.00;3.90;;;11.90;99.90;;;;;;10537795;28;20191;-85
2022/10/29 20:40:24;;;;;;;12.33;4.90;;;11.90;99.90;;;;;;10533064;28;20548;-82
2022/10/29 20:45:45;;;;;;;7.63;3.90;;;11.90;99.90;;;;;;10514551;28;20299;-79
2022/10/29 20:51:07;;;;;;;9.10;3.20;;;11.90;99.90;;;;;;10527406;28;20227;-81
2022/10/29 20:56:28;;;;;;;8.73;4.80;;;11.90;99.90;;;;;;10526084;28;20209;-78
2022/10/29 21:01:50;;;;;;;8.50;4.30;;;11.80;99.90;;;;;;10528374;28;20215;-86
2022/10/29 21:07:11;;;;;;;7.90;3.10;;;11.80;99.90;;;;;;10528721;28;20229;-79
2022/10/29 21:12:32;;;;;;;6.30;2.80;;;11.80;99.90;;;;;;10510680;28;20482;-78
2022/10/29 21:17:54;;;;;;;5.87;2.57;;;11.80;99.90;;;;;;10525750;28;20199;-79
2022/10/29 21:23:14;;;;;;;6.17;2.67;;;11.70;99.90;;;;;;10524572;28;20225;-79
2022/10/29 21:28:38;;;;;;;5.33;2.50;;;11.70;99.90;;;;;;10523876;28;20227;-78
2022/10/29 21:34:00;;;;;;;5.10;2.63;;;11.70;99.90;;;;;;10523690;28;20192;-78
2022/10/29 21:39:21;;;;;;;2.73;1.87;;;11.70;99.90;;;;;;10546746;28;20195;-79
2022/10/29 21:44:42;;;;;;;6.53;3.07;;;11.70;99.90;;;;;;10565845;28;20193;-79
2022/10/29 21:50:03;;;;;;;6.27;3.77;;;11.60;99.90;;;;;;10485530;28;20238;-84
2022/10/29 21:55:24;;;;;;;9.70;5.17;;;11.60;99.90;;;;;;10482607;28;20199;-78
2022/10/29 22:00:45;;;;;;;12.57;6.80;;;11.50;99.90;;;;;;10482359;28;20429;-78
2022/10/29 22:06:12;;;;;;;22.30;9.20;;;11.50;99.90;;;;;;10507015;28;20274;-78
2022/10/29 22:11:33;;;;;;;13.83;7.50;;;11.50;99.90;;;;;;10481189;28;20224;-79
2022/10/29 22:16:56;;;;;;;13.07;6.00;;;11.60;99.90;;;;;;10480895;28;20190;-80
2022/10/29 22:22:17;;;;;;;10.53;4.97;;;11.60;99.90;;;;;;10483343;28;20498;-79
2022/10/29 22:27:56;;;;;;;10.70;4.40;;;11.60;99.90;;;;;;10481188;28;20241;-78
2022/10/29 22:33:17;;;;;;;7.23;3.50;;;11.40;99.90;;;;;;10481073;28;20207;-77
2022/10/29 22:38:38;;;;;;;7.83;4.00;;;11.50;99.90;;;;;;10521178;28;20200;-85
2022/10/29 22:44:00;;;;;;;14.40;6.70;;;11.40;99.90;;;;;;10550050;28;20385;-88
2022/10/29 22:49:21;;;;;;;10.20;5.73;;;11.40;99.90;;;;;;10488993;28;20240;-80
2022/10/29 22:54:42;;;;;;;11.83;5.17;;;11.40;99.90;;;;;;10465306;28;20431;-88
2022/10/29 23:00:03;;;;;;;8.67;4.13;;;11.40;99.90;;;;;;10466989;28;20248;-78
2022/10/29 23:05:24;;;;;;;10.67;4.03;;;11.30;99.90;;;;;;10508792;28;20197;-81
2022/10/29 23:10:45;;;;;;;11.20;4.90;;;11.40;99.90;;;;;;10519897;28;20439;-86
2022/10/29 23:16:07;;;;;;;9.73;3.97;;;11.30;99.90;;;;;;10520944;28;20259;-81
2022/10/29 23:21:28;;;;;;;8.50;4.03;;;11.30;99.90;;;;;;10520069;28;20230;-77
2022/10/29 23:26:49;;;;;;;9.77;2.93;;;11.40;99.90;;;;;;10519915;28;20187;-81
2022/10/29 23:32:10;;;;;;;4.97;2.80;;;11.40;99.90;;;;;;10519350;28;20293;-87
2022/10/29 23:37:32;;;;;;;6.57;3.67;;;11.50;99.90;;;;;;10519940;28;20219;-81
2022/10/29 23:42:52;;;;;;;9.63;4.77;;;11.50;99.90;;;;;;10558244;28;20201;-77
2022/10/29 23:48:14;;;;;;;16.63;7.13;;;11.50;99.90;;;;;;10518715;28;20241;-82
2022/10/29 23:53:35;;;;;;;14.57;6.23;;;11.40;99.90;;;;;;10519058;28;20222;-78
2022/10/29 23:58:56;;;;;;;9.97;4.97;;;11.40;99.90;;;;;;10504442;28;20201;-78
